createdAt,value
2022-10-09T00:01:28.752Z,10.10
2022-10-09T00:03:57.580Z,10.10
2022-10-09T00:06:28.640Z,10.10
2022-10-09T00:08:56.282Z,10.10
2022-10-09T00:11:30.450Z,10.10
2022-10-09T00:13:58.233Z,10.10
2022-10-09T00:16:26.294Z,10.00
2022-10-09T00:18:54.843Z,10.00
2022-10-09T00:21:26.201Z,10.00
2022-10-09T00:23:58.163Z,10.00
2022-10-09T00:26:26.821Z,10.10
2022-10-09T00:28:55.224Z,10.10
2022-10-09T00:31:23.313Z,10.10
2022-10-09T00:33:50.465Z,10.00
2022-10-09T00:36:24.459Z,10.00
2022-10-09T00:38:53.334Z,9.90
2022-10-09T00:41:25.810Z,9.90
2022-10-09T00:43:59.910Z,9.80
2022-10-09T00:46:48.267Z,9.80
2022-10-09T00:49:27.822Z,9.70
2022-10-09T00:51:58.910Z,9.70
2022-10-09T00:54:30.677Z,9.60
2022-10-09T00:56:57.857Z,9.60
2022-10-09T00:59:26.500Z,9.60
2022-10-09T01:01:54.181Z,9.50
2022-10-09T01:04:21.287Z,9.50
2022-10-09T01:07:38.896Z,9.50
2022-10-09T01:10:41.885Z,9.50
2022-10-09T01:13:28.392Z,9.50
2022-10-09T01:16:27.213Z,9.50
2022-10-09T01:19:45.799Z,9.50
2022-10-09T01:23:02.866Z,9.40
2022-10-09T01:25:44.827Z,9.50
2022-10-09T01:28:14.521Z,9.50
2022-10-09T01:30:42.642Z,9.40
2022-10-09T01:33:11.260Z,9.50
2022-10-09T01:35:40.869Z,9.50
2022-10-09T01:38:08.550Z,9.50
2022-10-09T01:40:37.040Z,9.40
2022-10-09T01:43:05.360Z,9.40
2022-10-09T01:45:42.256Z,9.40
2022-10-09T01:48:18.036Z,9.40
2022-10-09T01:50:52.751Z,9.30
2022-10-09T01:53:21.621Z,9.40
2022-10-09T01:56:15.098Z,9.40
2022-10-09T01:58:52.234Z,9.40
2022-10-09T02:01:27.189Z,9.40
2022-10-09T02:03:58.791Z,9.30
2022-10-09T02:06:28.803Z,9.40
2022-10-09T02:08:56.353Z,9.40
2022-10-09T02:11:29.418Z,9.40
2022-10-09T02:13:56.703Z,9.40
2022-10-09T02:16:37.539Z,9.30
2022-10-09T02:19:19.845Z,9.30
2022-10-09T02:22:01.361Z,9.30
2022-10-09T02:24:29.604Z,9.30
2022-10-09T02:26:58.219Z,9.30
2022-10-09T02:29:26.108Z,9.30
2022-10-09T02:31:53.199Z,9.20
2022-10-09T02:34:21.234Z,9.30
2022-10-09T02:36:49.909Z,9.30
2022-10-09T02:39:17.728Z,9.30
2022-10-09T02:41:44.670Z,9.40
2022-10-09T02:44:14.688Z,9.40
2022-10-09T02:46:41.819Z,9.40
2022-10-09T02:49:08.834Z,9.40
2022-10-09T02:51:35.917Z,9.40
2022-10-09T02:54:03.170Z,9.40
2022-10-09T02:56:30.520Z,9.40
2022-10-09T02:58:57.762Z,9.40
2022-10-09T03:01:25.053Z,9.40
2022-10-09T03:03:52.205Z,9.40
2022-10-09T03:06:24.115Z,9.40
2022-10-09T03:08:53.593Z,9.40
2022-10-09T03:11:23.332Z,9.30
2022-10-09T03:13:50.978Z,9.30
2022-10-09T03:16:24.437Z,9.30
2022-10-09T03:18:52.871Z,9.30
2022-10-09T03:21:26.787Z,9.30
2022-10-09T03:23:54.770Z,9.30
2022-10-09T03:26:25.819Z,9.30
2022-10-09T03:28:54.837Z,9.30
2022-10-09T03:34:12.972Z,9.20
2022-10-09T03:36:40.308Z,9.10
2022-10-09T03:39:07.308Z,9.20
2022-10-09T03:41:34.207Z,9.10
2022-10-09T03:44:01.179Z,9.20
2022-10-09T03:46:28.204Z,9.10
2022-10-09T03:48:55.361Z,9.10
2022-10-09T03:51:22.270Z,9.10
2022-10-09T03:53:50.018Z,9.10
2022-10-09T03:56:16.972Z,9.10
2022-10-09T03:58:43.885Z,9.10
2022-10-09T04:01:10.858Z,9.10
2022-10-09T04:03:37.881Z,9.10
2022-10-09T04:06:05.164Z,9.10
2022-10-09T04:08:32.083Z,9.10
2022-10-09T04:11:00.548Z,9.10
2022-10-09T04:13:27.821Z,9.10
2022-10-09T04:15:56.140Z,9.10
2022-10-09T04:18:24.571Z,9.00
2022-10-09T04:20:56.468Z,9.00
2022-10-09T04:23:27.036Z,9.00
2022-10-09T04:25:56.707Z,8.90
2022-10-09T04:28:24.212Z,8.90
2022-10-09T04:30:51.523Z,8.80
2022-10-09T04:33:19.216Z,8.80
2022-10-09T04:35:50.712Z,8.80
2022-10-09T04:38:17.744Z,8.80
2022-10-09T04:40:44.748Z,8.90
2022-10-09T04:43:11.612Z,8.90
2022-10-09T04:45:41.829Z,8.90
2022-10-09T04:48:08.755Z,8.90
2022-10-09T04:50:39.632Z,8.90
2022-10-09T04:53:06.552Z,8.80
2022-10-09T04:55:33.485Z,8.80
2022-10-09T04:58:00.351Z,8.90
2022-10-09T05:00:27.243Z,8.90
2022-10-09T05:02:54.141Z,8.90
2022-10-09T05:05:21.034Z,8.80
2022-10-09T05:07:47.920Z,8.90
2022-10-09T05:10:15.026Z,8.90
2022-10-09T05:12:42.047Z,8.90
2022-10-09T05:15:09.553Z,8.90
2022-10-09T05:17:36.560Z,8.90
2022-10-09T05:20:03.782Z,8.90
2022-10-09T05:22:30.702Z,8.90
2022-10-09T05:24:57.582Z,8.90
2022-10-09T05:27:24.585Z,9.00
2022-10-09T05:29:51.462Z,9.00
2022-10-09T05:32:18.382Z,9.00
2022-10-09T05:34:45.296Z,9.00
2022-10-09T05:37:12.257Z,9.10
2022-10-09T05:39:39.547Z,9.10
2022-10-09T05:42:06.500Z,9.20
2022-10-09T05:44:33.394Z,9.20
2022-10-09T05:47:00.306Z,9.20
2022-10-09T05:49:27.198Z,9.30
2022-10-09T05:51:55.876Z,9.40
2022-10-09T05:54:22.910Z,9.40
2022-10-09T05:56:49.855Z,9.50
2022-10-09T05:59:21.895Z,9.70
2022-10-09T06:01:51.616Z,9.80
2022-10-09T06:04:24.608Z,9.80
2022-10-09T06:06:52.058Z,9.80
2022-10-09T06:09:25.471Z,9.90
2022-10-09T06:11:54.711Z,10.00
2022-10-09T06:14:22.614Z,10.10
2022-10-09T06:16:50.295Z,10.10
2022-10-09T06:19:19.307Z,10.20
2022-10-09T06:21:47.618Z,10.20
2022-10-09T06:24:27.372Z,10.30
2022-10-09T06:26:56.966Z,10.30
2022-10-09T06:29:23.982Z,10.40
2022-10-09T06:31:50.885Z,10.30
2022-10-09T06:34:19.034Z,10.20
2022-10-09T06:36:45.911Z,10.30
2022-10-09T06:39:13.150Z,10.30
2022-10-09T06:41:40.339Z,10.40
2022-10-09T06:44:16.404Z,10.50
2022-10-09T06:46:48.445Z,10.60
2022-10-09T06:49:15.387Z,10.80
2022-10-09T06:51:42.350Z,11.00
2022-10-09T06:54:17.250Z,11.10
2022-10-09T06:56:44.659Z,11.10
2022-10-09T06:59:12.507Z,11.30
2022-10-09T07:01:39.645Z,11.40
2022-10-09T07:04:17.664Z,11.30
2022-10-09T07:06:47.810Z,11.50
2022-10-09T07:09:16.395Z,11.80
2022-10-09T07:11:49.002Z,12.00
2022-10-09T07:14:16.991Z,12.00
2022-10-09T07:16:47.122Z,12.10
2022-10-09T07:19:17.486Z,12.20
2022-10-09T07:21:48.327Z,12.30
2022-10-09T07:24:16.308Z,12.50
2022-10-09T07:26:46.216Z,12.60
2022-10-09T07:29:16.480Z,12.60
2022-10-09T07:31:44.119Z,12.60
2022-10-09T07:34:11.387Z,12.70
2022-10-09T07:36:38.352Z,13.00
2022-10-09T07:39:05.843Z,12.90
2022-10-09T07:41:33.336Z,12.90
2022-10-09T07:44:00.402Z,13.00
2022-10-09T07:46:33.268Z,13.10
2022-10-09T07:49:01.863Z,13.30
2022-10-09T07:51:30.452Z,13.30
2022-10-09T07:53:59.948Z,13.30
2022-10-09T07:56:34.248Z,13.50
2022-10-09T07:59:07.974Z,13.60
2022-10-09T08:01:36.173Z,13.50
2022-10-09T08:04:04.129Z,13.50
2022-10-09T08:06:31.918Z,13.70
2022-10-09T08:09:02.264Z,13.90
2022-10-09T08:11:30.239Z,13.80
2022-10-09T08:13:57.721Z,14.00
2022-10-09T08:16:26.620Z,13.80
2022-10-09T08:18:59.514Z,13.70
2022-10-09T08:21:28.461Z,13.90
2022-10-09T08:23:58.653Z,14.20
2022-10-09T08:26:29.052Z,14.10
2022-10-09T08:29:02.596Z,14.10
2022-10-09T08:31:31.886Z,14.30
2022-10-09T08:34:01.782Z,14.30
2022-10-09T08:36:29.918Z,14.30
2022-10-09T08:38:57.110Z,14.00
2022-10-09T08:41:33.220Z,14.20
2022-10-09T08:44:25.207Z,14.50
2022-10-09T08:47:20.350Z,14.40
2022-10-09T08:50:11.126Z,14.40
2022-10-09T08:52:56.357Z,14.50
2022-10-09T08:55:32.818Z,14.60
2022-10-09T08:58:06.924Z,14.80
2022-10-09T09:00:49.958Z,14.80
2022-10-09T09:03:43.457Z,14.90
2022-10-09T09:06:38.078Z,14.90
2022-10-09T09:09:38.582Z,14.90
2022-10-09T09:12:21.989Z,14.80
2022-10-09T09:15:23.234Z,14.90
2022-10-09T09:18:37.629Z,14.90
2022-10-09T09:21:35.254Z,15.00
2022-10-09T09:24:13.776Z,15.20
2022-10-09T09:26:43.898Z,14.90
2022-10-09T09:29:15.224Z,14.90
2022-10-09T09:31:46.242Z,15.00
2022-10-09T09:34:23.544Z,15.30
2022-10-09T09:36:56.992Z,15.40
2022-10-09T09:40:24.234Z,15.50
2022-10-09T09:42:21.263Z,15.60
2022-10-09T09:45:22.259Z,15.90
2022-10-09T09:47:57.505Z,15.90
2022-10-09T09:50:48.566Z,15.80
2022-10-09T09:53:32.526Z,15.80
2022-10-09T09:56:00.051Z,15.60
2022-10-09T09:58:55.208Z,15.60
2022-10-09T10:01:25.905Z,15.80
2022-10-09T10:03:56.754Z,16.10
2022-10-09T10:06:31.792Z,15.90
2022-10-09T10:09:12.910Z,15.90
2022-10-09T10:12:01.611Z,15.80
2022-10-09T10:14:29.589Z,15.90
2022-10-09T10:17:00.030Z,16.20
2022-10-09T10:19:36.238Z,16.40
2022-10-09T10:22:23.633Z,16.50
2022-10-09T10:24:56.788Z,16.20
2022-10-09T10:27:37.221Z,16.00
2022-10-09T10:30:10.872Z,16.00
2022-10-09T10:33:16.839Z,15.90
2022-10-09T10:35:44.920Z,15.90
2022-10-09T10:38:19.532Z,15.70
2022-10-09T10:40:52.743Z,15.60
2022-10-09T10:43:45.248Z,15.60
2022-10-09T10:46:36.933Z,15.50
2022-10-09T10:49:04.661Z,15.40
2022-10-09T10:52:08.823Z,15.30
2022-10-09T10:55:22.184Z,15.30
2022-10-09T10:58:32.416Z,15.30
2022-10-09T11:01:32.083Z,15.30
2022-10-09T11:04:22.785Z,15.30
2022-10-09T11:07:07.752Z,15.30
2022-10-09T11:10:19.110Z,15.30
2022-10-09T11:13:06.478Z,15.20
2022-10-09T11:15:57.467Z,15.30
2022-10-09T11:18:33.303Z,15.40
2022-10-09T11:21:13.148Z,15.30
2022-10-09T11:24:13.800Z,15.30
2022-10-09T11:26:52.842Z,15.40
2022-10-09T11:29:50.218Z,15.50
2022-10-09T11:32:27.285Z,15.60
2022-10-09T11:35:12.492Z,15.50
2022-10-09T11:37:43.822Z,15.70
2022-10-09T11:40:31.116Z,15.80
2022-10-09T11:43:25.202Z,15.90
2022-10-09T11:46:11.418Z,16.10
2022-10-09T11:48:54.768Z,16.10
2022-10-09T11:51:24.635Z,16.20
2022-10-09T11:53:53.595Z,16.10
2022-10-09T11:56:32.528Z,16.00
2022-10-09T11:59:30.183Z,16.00
2022-10-09T12:02:23.784Z,16.10
2022-10-09T12:04:54.749Z,15.90
2022-10-09T12:10:34.684Z,16.00
2022-10-09T12:13:06.504Z,15.90
2022-10-09T12:15:59.754Z,16.00
2022-10-09T12:18:46.862Z,15.90
2022-10-09T12:21:31.881Z,15.80
2022-10-09T12:24:00.120Z,15.80
2022-10-09T12:26:30.786Z,15.60
2022-10-09T12:29:04.809Z,15.40
2022-10-09T12:31:39.910Z,15.30
2022-10-09T12:34:24.088Z,15.30
2022-10-09T12:36:51.114Z,15.40
2022-10-09T12:39:24.348Z,15.50
2022-10-09T12:41:56.970Z,15.50
2022-10-09T12:44:35.775Z,15.60
2022-10-09T12:47:19.064Z,15.70
2022-10-09T12:49:59.524Z,15.80
2022-10-09T12:52:26.835Z,16.00
2022-10-09T12:54:54.082Z,15.90
2022-10-09T12:57:25.395Z,16.00
2022-10-09T12:59:55.580Z,16.00
2022-10-09T13:02:22.920Z,15.80
2022-10-09T13:05:00.564Z,15.70
2022-10-09T13:07:30.270Z,15.50
2022-10-09T13:10:20.284Z,15.40
2022-10-09T13:12:55.630Z,15.60
2022-10-09T13:15:37.136Z,15.60
2022-10-09T13:18:24.383Z,15.60
2022-10-09T13:21:22.330Z,15.70
2022-10-09T13:23:49.407Z,15.80
2022-10-09T13:26:26.868Z,15.70
2022-10-09T13:28:56.737Z,15.70
2022-10-09T13:31:24.050Z,15.80
2022-10-09T13:33:51.039Z,15.80
2022-10-09T13:36:19.932Z,15.90
2022-10-09T13:38:47.924Z,16.00
2022-10-09T13:41:20.849Z,16.00
2022-10-09T13:43:49.407Z,16.00
2022-10-09T13:46:16.577Z,15.90
2022-10-09T13:48:43.591Z,15.80
2022-10-09T13:51:11.394Z,15.80
2022-10-09T13:53:38.527Z,15.80
2022-10-09T13:56:07.768Z,15.70
2022-10-09T13:58:35.104Z,15.60
2022-10-09T14:01:02.415Z,15.60
2022-10-09T14:03:29.523Z,15.60
2022-10-09T14:06:03.013Z,15.50
2022-10-09T14:08:30.696Z,15.40
2022-10-09T14:11:00.661Z,15.40
2022-10-09T14:13:28.791Z,15.40
2022-10-09T14:15:56.728Z,15.40
2022-10-09T14:18:23.842Z,15.30
2022-10-09T14:20:50.894Z,15.20
2022-10-09T14:23:17.806Z,15.20
2022-10-09T14:25:44.711Z,15.40
2022-10-09T14:28:11.642Z,15.40
2022-10-09T14:30:43.689Z,15.50
2022-10-09T14:33:12.413Z,15.50
2022-10-09T14:35:39.662Z,15.60
2022-10-09T14:38:06.588Z,15.60
2022-10-09T14:40:33.494Z,15.60
2022-10-09T14:43:00.821Z,15.60
2022-10-09T14:45:28.981Z,15.70
2022-10-09T14:47:56.791Z,15.80
2022-10-09T14:50:23.704Z,15.80
2022-10-09T14:52:50.921Z,15.80
2022-10-09T14:55:18.093Z,15.70
2022-10-09T14:57:45.322Z,15.70
2022-10-09T15:00:13.168Z,15.80
2022-10-09T15:02:40.254Z,15.80
2022-10-09T15:05:08.518Z,15.80
2022-10-09T15:07:35.586Z,15.80
2022-10-09T15:10:02.548Z,15.80
2022-10-09T15:12:29.455Z,15.80
2022-10-09T15:14:56.498Z,15.80
2022-10-09T15:17:23.365Z,15.80
2022-10-09T15:19:50.378Z,15.80
2022-10-09T15:22:17.407Z,15.80
2022-10-09T15:24:44.326Z,15.80
2022-10-09T15:27:11.283Z,15.80
2022-10-09T15:29:38.312Z,15.70
2022-10-09T15:32:05.242Z,15.70
2022-10-09T15:34:32.148Z,15.70
2022-10-09T15:36:59.036Z,15.70
2022-10-09T15:39:25.952Z,15.70
2022-10-09T15:41:52.886Z,15.60
2022-10-09T15:44:20.999Z,15.50
2022-10-09T15:46:49.452Z,15.40
2022-10-09T15:49:16.752Z,15.40
2022-10-09T15:51:44.198Z,15.30
2022-10-09T15:54:12.937Z,15.20
2022-10-09T15:56:41.368Z,15.10
2022-10-09T15:59:13.173Z,15.00
2022-10-09T16:01:40.432Z,15.00
2022-10-09T16:04:07.443Z,14.90
2022-10-09T16:06:34.408Z,14.80
2022-10-09T16:09:03.977Z,14.70
2022-10-09T16:11:31.482Z,14.60
2022-10-09T16:13:59.319Z,14.50
2022-10-09T16:16:27.809Z,14.30
2022-10-09T16:18:56.770Z,14.20
2022-10-09T16:21:28.057Z,14.10
2022-10-09T16:23:58.722Z,14.10
2022-10-09T16:26:29.384Z,14.00
2022-10-09T16:28:57.142Z,13.90
2022-10-09T16:31:30.398Z,13.80
2022-10-09T16:33:59.274Z,13.70
2022-10-09T16:36:27.054Z,13.60
2022-10-09T16:38:55.860Z,13.50
2022-10-09T16:41:24.283Z,13.40
2022-10-09T16:43:55.029Z,13.30
2022-10-09T16:46:25.288Z,13.20
2022-10-09T16:48:55.148Z,13.10
2022-10-09T16:51:29.414Z,12.90
2022-10-09T16:54:01.287Z,12.80
2022-10-09T16:56:37.120Z,12.70
2022-10-09T16:59:08.036Z,12.70
2022-10-09T17:01:37.875Z,12.50
2022-10-09T17:04:05.418Z,12.40
2022-10-09T17:06:32.396Z,12.30
2022-10-09T17:09:00.182Z,12.20
2022-10-09T17:11:32.355Z,12.20
2022-10-09T17:14:00.033Z,12.10
2022-10-09T17:16:31.392Z,12.10
2022-10-09T17:18:58.677Z,12.00
2022-10-09T17:21:29.318Z,11.90
2022-10-09T17:24:05.744Z,11.80
2022-10-09T17:26:33.037Z,11.60
2022-10-09T17:29:01.858Z,11.50
2022-10-09T17:31:30.190Z,11.40
2022-10-09T17:34:00.826Z,11.20
2022-10-09T17:36:33.317Z,11.10
2022-10-09T17:39:00.410Z,11.10
2022-10-09T17:41:28.314Z,11.10
2022-10-09T17:43:57.248Z,11.00
2022-10-09T17:46:26.752Z,11.10
2022-10-09T17:48:56.651Z,11.00
2022-10-09T17:51:29.548Z,11.10
2022-10-09T17:54:09.609Z,11.10
2022-10-09T17:56:39.378Z,11.00
2022-10-09T17:59:07.286Z,10.90
2022-10-09T18:01:34.859Z,10.80
2022-10-09T18:04:01.998Z,10.70
2022-10-09T18:06:33.226Z,10.60
2022-10-09T18:09:00.806Z,10.60
2022-10-09T18:11:28.524Z,10.60
2022-10-09T18:13:55.824Z,10.60
2022-10-09T18:16:35.258Z,10.70
2022-10-09T18:19:13.856Z,10.70
2022-10-09T18:21:45.261Z,10.60
2022-10-09T18:24:12.935Z,10.60
2022-10-09T18:26:40.584Z,10.50
2022-10-09T18:29:07.965Z,10.50
2022-10-09T18:31:35.590Z,10.50
2022-10-09T18:34:02.594Z,10.40
2022-10-09T18:36:31.778Z,10.30
2022-10-09T18:39:07.612Z,10.30
2022-10-09T18:41:35.694Z,10.20
2022-10-09T18:44:03.803Z,10.00
2022-10-09T18:46:42.715Z,9.90
2022-10-09T18:49:14.620Z,10.00
2022-10-09T18:51:44.558Z,9.90
2022-10-09T18:54:17.080Z,9.90
2022-10-09T18:56:45.396Z,9.90
2022-10-09T18:59:17.654Z,9.90
2022-10-09T19:01:44.758Z,9.90
2022-10-09T19:04:11.966Z,9.90
2022-10-09T19:06:43.065Z,9.90
2022-10-09T19:09:10.089Z,9.90
2022-10-09T19:11:37.047Z,9.90
2022-10-09T19:14:04.337Z,9.70
2022-10-09T19:16:33.979Z,9.60
2022-10-09T19:19:01.281Z,9.60
2022-10-09T19:21:28.513Z,9.60
2022-10-09T19:23:55.718Z,9.50
2022-10-09T19:26:23.310Z,9.40
2022-10-09T19:28:50.445Z,9.40
2022-10-09T19:31:17.560Z,9.50
2022-10-09T19:33:44.523Z,9.50
2022-10-09T19:36:14.362Z,9.60
2022-10-09T19:38:42.085Z,9.60
2022-10-09T19:41:15.570Z,9.50
2022-10-09T19:43:42.856Z,9.50
2022-10-09T19:46:17.519Z,9.50
2022-10-09T19:48:46.001Z,9.50
2022-10-09T19:51:22.311Z,9.50
2022-10-09T19:53:50.961Z,9.40
2022-10-09T19:56:26.170Z,9.40
2022-10-09T19:58:55.625Z,9.30
2022-10-09T20:01:26.508Z,9.30
2022-10-09T20:04:02.492Z,9.20
2022-10-09T20:06:31.028Z,9.30
2022-10-09T20:08:57.984Z,9.30
2022-10-09T20:11:26.752Z,9.30
2022-10-09T20:13:56.190Z,9.20
2022-10-09T20:16:25.152Z,9.20
2022-10-09T20:18:55.595Z,9.20
2022-10-09T20:21:22.668Z,9.30
2022-10-09T20:23:49.960Z,9.20
2022-10-09T20:26:20.812Z,9.20
2022-10-09T20:28:48.851Z,9.20
2022-10-09T20:31:19.840Z,9.10
2022-10-09T20:33:49.779Z,9.10
2022-10-09T20:36:37.448Z,9.00
2022-10-09T20:39:11.917Z,9.00
2022-10-09T20:41:40.787Z,8.90
2022-10-09T20:44:07.737Z,9.00
2022-10-09T20:46:38.000Z,9.00
2022-10-09T20:49:08.225Z,8.90
2022-10-09T20:51:37.020Z,8.80
2022-10-09T20:54:05.305Z,8.80
2022-10-09T20:56:34.100Z,8.80
2022-10-09T20:59:01.745Z,8.80
2022-10-09T21:01:29.083Z,8.80
2022-10-09T21:03:59.026Z,8.80
2022-10-09T21:06:26.531Z,8.80
2022-10-09T21:08:53.630Z,8.90
2022-10-09T21:11:24.101Z,8.80
2022-10-09T21:13:51.573Z,8.80
2022-10-09T21:16:22.512Z,8.80
2022-10-09T21:19:02.508Z,8.80
2022-10-09T21:21:31.152Z,8.70
2022-10-09T21:24:00.624Z,8.70
2022-10-09T21:26:30.371Z,8.70
2022-10-09T21:28:59.888Z,8.60
2022-10-09T21:31:30.832Z,8.50
2022-10-09T21:34:00.004Z,8.50
2022-10-09T21:36:55.823Z,8.40
2022-10-09T21:39:28.270Z,8.40
2022-10-09T21:41:55.495Z,8.40
2022-10-09T21:44:22.465Z,8.50
2022-10-09T21:46:49.398Z,8.50
2022-10-09T21:49:21.960Z,8.50
2022-10-09T21:51:49.650Z,8.50
2022-10-09T21:54:16.814Z,8.40
2022-10-09T21:56:43.852Z,8.40
2022-10-09T21:59:10.977Z,8.50
2022-10-09T22:01:38.192Z,8.40
2022-10-09T22:04:05.371Z,8.40
2022-10-09T22:06:32.302Z,8.40
2022-10-09T22:08:59.935Z,8.40
2022-10-09T22:11:27.134Z,8.40
2022-10-09T22:13:56.107Z,8.40
2022-10-09T22:16:23.526Z,8.50
2022-10-09T22:18:50.502Z,8.60
2022-10-09T22:21:18.310Z,8.50
2022-10-09T22:23:45.760Z,8.40
2022-10-09T22:26:17.845Z,8.40
2022-10-09T22:28:47.353Z,8.40
2022-10-09T22:31:21.779Z,8.30
2022-10-09T22:34:06.777Z,8.40
2022-10-09T22:36:34.264Z,8.40
2022-10-09T22:39:06.940Z,8.40
2022-10-09T22:41:35.969Z,8.50
2022-10-09T22:44:06.129Z,8.60
2022-10-09T22:46:37.644Z,8.50
2022-10-09T22:49:07.052Z,8.50
2022-10-09T22:51:34.961Z,8.40
2022-10-09T22:54:01.937Z,8.40
2022-10-09T22:56:36.579Z,8.50
2022-10-09T22:59:05.422Z,8.50
2022-10-09T23:01:42.553Z,8.60
2022-10-09T23:04:13.460Z,8.70
2022-10-09T23:06:42.306Z,8.70
2022-10-09T23:09:14.078Z,8.70
2022-10-09T23:11:42.229Z,8.60
2022-10-09T23:14:11.595Z,8.60
2022-10-09T23:16:39.428Z,8.70
2022-10-09T23:19:07.283Z,8.70
2022-10-09T23:21:36.535Z,8.80
2022-10-09T23:24:04.718Z,8.80
2022-10-09T23:26:33.849Z,8.80
2022-10-09T23:29:18.207Z,8.80
2022-10-09T23:31:46.410Z,8.80
2022-10-09T23:34:13.728Z,8.80
2022-10-09T23:36:41.307Z,8.80
2022-10-09T23:39:08.308Z,8.80
2022-10-09T23:41:35.736Z,8.80
2022-10-09T23:44:02.824Z,8.70
2022-10-09T23:46:35.555Z,8.70
2022-10-09T23:49:02.593Z,8.70
2022-10-09T23:51:30.094Z,8.70
2022-10-09T23:53:58.657Z,8.70
2022-10-09T23:56:29.822Z,8.70
2022-10-09T23:58:58.825Z,8.70
